sensor_id;sensor_type;location;lat;lon;timestamp;P1;durP1;ratioP1;P2;durP2;ratioP2
4583;SDS011;2304;47.606;12.186;2022-12-18T00:04:15;38.57;;;19.87;;
4583;SDS011;2304;47.606;12.186;2022-12-18T00:09:22;33.93;;;18.30;;
4583;SDS011;2304;47.606;12.186;2022-12-18T00:14:24;40.30;;;19.30;;
4583;SDS011;2304;47.606;12.186;2022-12-18T00:19:26;36.80;;;18.20;;
4583;SDS011;2304;47.606;12.186;2022-12-18T00:24:29;50.47;;;24.37;;
4583;SDS011;2304;47.606;12.186;2022-12-18T00:29:31;48.63;;;22.70;;
4583;SDS011;2304;47.606;12.186;2022-12-18T00:34:33;33.80;;;17.90;;
4583;SDS011;2304;47.606;12.186;2022-12-18T00:39:36;34.70;;;17.73;;
4583;SDS011;2304;47.606;12.186;2022-12-18T00:44:38;29.03;;;14.67;;
4583;SDS011;2304;47.606;12.186;2022-12-18T00:49:40;30.57;;;16.83;;
4583;SDS011;2304;47.606;12.186;2022-12-18T00:54:43;29.80;;;16.43;;
4583;SDS011;2304;47.606;12.186;2022-12-18T00:59:45;37.10;;;16.73;;
4583;SDS011;2304;47.606;12.186;2022-12-18T01:04:47;29.40;;;16.00;;
4583;SDS011;2304;47.606;12.186;2022-12-18T01:09:50;25.73;;;13.83;;
4583;SDS011;2304;47.606;12.186;2022-12-18T01:14:52;31.00;;;15.47;;
4583;SDS011;2304;47.606;12.186;2022-12-18T01:19:54;29.83;;;15.30;;
4583;SDS011;2304;47.606;12.186;2022-12-18T01:24:57;25.90;;;14.90;;
4583;SDS011;2304;47.606;12.186;2022-12-18T01:29:59;28.17;;;15.60;;
4583;SDS011;2304;47.606;12.186;2022-12-18T01:35:01;32.50;;;15.77;;
4583;SDS011;2304;47.606;12.186;2022-12-18T01:40:04;37.77;;;16.87;;
4583;SDS011;2304;47.606;12.186;2022-12-18T01:45:21;26.13;;;14.77;;
4583;SDS011;2304;47.606;12.186;2022-12-18T01:50:27;29.37;;;15.73;;
4583;SDS011;2304;47.606;12.186;2022-12-18T01:55:35;25.40;;;14.37;;
4583;SDS011;2304;47.606;12.186;2022-12-18T02:00:39;24.37;;;12.13;;
4583;SDS011;2304;47.606;12.186;2022-12-18T02:05:43;26.00;;;13.53;;
4583;SDS011;2304;47.606;12.186;2022-12-18T02:10:51;17.63;;;9.90;;
4583;SDS011;2304;47.606;12.186;2022-12-18T02:15:59;26.27;;;11.20;;
4583;SDS011;2304;47.606;12.186;2022-12-18T02:21:08;34.43;;;15.73;;
4583;SDS011;2304;47.606;12.186;2022-12-18T02:26:23;31.00;;;17.60;;
4583;SDS011;2304;47.606;12.186;2022-12-18T02:31:31;29.30;;;15.10;;
4583;SDS011;2304;47.606;12.186;2022-12-18T02:36:40;28.27;;;15.30;;
4583;SDS011;2304;47.606;12.186;2022-12-18T02:41:46;25.50;;;12.40;;
4583;SDS011;2304;47.606;12.186;2022-12-18T02:46:50;21.33;;;10.80;;
4583;SDS011;2304;47.606;12.186;2022-12-18T02:51:55;20.50;;;9.97;;
4583;SDS011;2304;47.606;12.186;2022-12-18T02:57:05;15.43;;;9.03;;
4583;SDS011;2304;47.606;12.186;2022-12-18T03:02:32;19.60;;;10.07;;
4583;SDS011;2304;47.606;12.186;2022-12-18T03:07:42;20.70;;;9.53;;
4583;SDS011;2304;47.606;12.186;2022-12-18T03:12:52;19.87;;;10.50;;
4583;SDS011;2304;47.606;12.186;2022-12-18T03:17:59;18.43;;;10.37;;
4583;SDS011;2304;47.606;12.186;2022-12-18T03:23:07;21.33;;;11.10;;
4583;SDS011;2304;47.606;12.186;2022-12-18T03:28:14;28.17;;;14.43;;
4583;SDS011;2304;47.606;12.186;2022-12-18T03:33:23;20.97;;;11.40;;
4583;SDS011;2304;47.606;12.186;2022-12-18T03:38:28;20.83;;;10.17;;
4583;SDS011;2304;47.606;12.186;2022-12-18T03:43:37;24.60;;;14.37;;
4583;SDS011;2304;47.606;12.186;2022-12-18T03:48:51;24.47;;;11.63;;
4583;SDS011;2304;47.606;12.186;2022-12-18T03:53:57;22.77;;;12.37;;
4583;SDS011;2304;47.606;12.186;2022-12-18T03:59:02;17.57;;;10.10;;
4583;SDS011;2304;47.606;12.186;2022-12-18T04:04:06;11.47;;;7.17;;
4583;SDS011;2304;47.606;12.186;2022-12-18T04:09:11;17.83;;;9.13;;
4583;SDS011;2304;47.606;12.186;2022-12-18T04:14:15;19.40;;;9.63;;
4583;SDS011;2304;47.606;12.186;2022-12-18T04:19:17;15.50;;;8.77;;
4583;SDS011;2304;47.606;12.186;2022-12-18T04:24:18;17.40;;;9.10;;
4583;SDS011;2304;47.606;12.186;2022-12-18T04:29:21;14.80;;;8.03;;
4583;SDS011;2304;47.606;12.186;2022-12-18T04:34:23;16.67;;;8.57;;
4583;SDS011;2304;47.606;12.186;2022-12-18T04:39:25;21.53;;;11.53;;
4583;SDS011;2304;47.606;12.186;2022-12-18T04:44:28;18.83;;;10.23;;
4583;SDS011;2304;47.606;12.186;2022-12-18T04:49:30;17.67;;;8.87;;
4583;SDS011;2304;47.606;12.186;2022-12-18T04:54:32;15.70;;;6.80;;
4583;SDS011;2304;47.606;12.186;2022-12-18T04:59:35;15.07;;;8.43;;
4583;SDS011;2304;47.606;12.186;2022-12-18T05:04:37;15.33;;;9.20;;
4583;SDS011;2304;47.606;12.186;2022-12-18T05:09:40;16.53;;;9.30;;
4583;SDS011;2304;47.606;12.186;2022-12-18T05:14:43;15.00;;;8.10;;
4583;SDS011;2304;47.606;12.186;2022-12-18T05:19:45;18.37;;;8.27;;
4583;SDS011;2304;47.606;12.186;2022-12-18T05:24:47;13.23;;;7.63;;
4583;SDS011;2304;47.606;12.186;2022-12-18T05:29:50;13.73;;;7.30;;
4583;SDS011;2304;47.606;12.186;2022-12-18T05:34:51;16.43;;;7.03;;
4583;SDS011;2304;47.606;12.186;2022-12-18T05:39:53;14.33;;;8.00;;
4583;SDS011;2304;47.606;12.186;2022-12-18T05:44:56;19.33;;;9.77;;
4583;SDS011;2304;47.606;12.186;2022-12-18T05:49:58;14.93;;;8.10;;
4583;SDS011;2304;47.606;12.186;2022-12-18T05:55:00;15.00;;;8.80;;
4583;SDS011;2304;47.606;12.186;2022-12-18T06:00:04;13.20;;;8.60;;
4583;SDS011;2304;47.606;12.186;2022-12-18T06:05:07;14.80;;;7.60;;
4583;SDS011;2304;47.606;12.186;2022-12-18T06:10:09;14.10;;;8.93;;
4583;SDS011;2304;47.606;12.186;2022-12-18T06:15:13;14.93;;;8.47;;
4583;SDS011;2304;47.606;12.186;2022-12-18T06:20:15;17.30;;;8.73;;
4583;SDS011;2304;47.606;12.186;2022-12-18T06:25:17;9.27;;;5.63;;
4583;SDS011;2304;47.606;12.186;2022-12-18T06:30:20;14.07;;;7.57;;
4583;SDS011;2304;47.606;12.186;2022-12-18T06:35:22;13.97;;;6.90;;
4583;SDS011;2304;47.606;12.186;2022-12-18T06:40:24;17.70;;;8.90;;
4583;SDS011;2304;47.606;12.186;2022-12-18T06:45:27;15.00;;;8.23;;
4583;SDS011;2304;47.606;12.186;2022-12-18T06:50:29;13.27;;;7.83;;
4583;SDS011;2304;47.606;12.186;2022-12-18T06:55:31;18.70;;;9.93;;
4583;SDS011;2304;47.606;12.186;2022-12-18T07:00:34;16.60;;;8.33;;
4583;SDS011;2304;47.606;12.186;2022-12-18T07:05:39;15.17;;;9.10;;
4583;SDS011;2304;47.606;12.186;2022-12-18T07:10:41;16.53;;;10.07;;
4583;SDS011;2304;47.606;12.186;2022-12-18T07:15:44;18.17;;;9.30;;
4583;SDS011;2304;47.606;12.186;2022-12-18T07:20:46;18.13;;;9.70;;
4583;SDS011;2304;47.606;12.186;2022-12-18T07:25:48;19.20;;;10.40;;
4583;SDS011;2304;47.606;12.186;2022-12-18T07:30:51;19.97;;;10.60;;
4583;SDS011;2304;47.606;12.186;2022-12-18T07:35:53;24.50;;;14.37;;
4583;SDS011;2304;47.606;12.186;2022-12-18T07:40:59;17.50;;;8.50;;
4583;SDS011;2304;47.606;12.186;2022-12-18T07:46:03;18.07;;;9.60;;
4583;SDS011;2304;47.606;12.186;2022-12-18T07:51:06;21.97;;;10.50;;
4583;SDS011;2304;47.606;12.186;2022-12-18T07:56:09;18.23;;;10.67;;
4583;SDS011;2304;47.606;12.186;2022-12-18T08:01:13;18.77;;;9.90;;
4583;SDS011;2304;47.606;12.186;2022-12-18T08:06:15;18.70;;;8.57;;
4583;SDS011;2304;47.606;12.186;2022-12-18T08:11:17;17.60;;;8.70;;
4583;SDS011;2304;47.606;12.186;2022-12-18T08:16:20;24.03;;;9.97;;
4583;SDS011;2304;47.606;12.186;2022-12-18T08:21:24;18.93;;;10.23;;
4583;SDS011;2304;47.606;12.186;2022-12-18T08:26:30;21.40;;;12.70;;
4583;SDS011;2304;47.606;12.186;2022-12-18T08:31:33;23.67;;;12.70;;
4583;SDS011;2304;47.606;12.186;2022-12-18T08:36:35;31.63;;;17.43;;
4583;SDS011;2304;47.606;12.186;2022-12-18T08:41:37;34.13;;;19.10;;
4583;SDS011;2304;47.606;12.186;2022-12-18T08:46:41;30.33;;;15.10;;
4583;SDS011;2304;47.606;12.186;2022-12-18T08:51:44;20.50;;;12.70;;
4583;SDS011;2304;47.606;12.186;2022-12-18T08:56:46;24.97;;;11.63;;
4583;SDS011;2304;47.606;12.186;2022-12-18T09:01:49;21.27;;;11.60;;
4583;SDS011;2304;47.606;12.186;2022-12-18T09:06:51;23.33;;;14.90;;
4583;SDS011;2304;47.606;12.186;2022-12-18T09:11:53;17.87;;;12.07;;
4583;SDS011;2304;47.606;12.186;2022-12-18T09:16:56;19.83;;;12.20;;
4583;SDS011;2304;47.606;12.186;2022-12-18T09:21:58;20.63;;;12.27;;
4583;SDS011;2304;47.606;12.186;2022-12-18T09:26:59;23.10;;;12.33;;
4583;SDS011;2304;47.606;12.186;2022-12-18T09:32:03;22.00;;;13.63;;
4583;SDS011;2304;47.606;12.186;2022-12-18T09:37:05;13.00;;;7.90;;
4583;SDS011;2304;47.606;12.186;2022-12-18T09:42:09;16.60;;;9.70;;
4583;SDS011;2304;47.606;12.186;2022-12-18T09:47:21;16.47;;;9.03;;
4583;SDS011;2304;47.606;12.186;2022-12-18T09:52:27;12.43;;;7.47;;
4583;SDS011;2304;47.606;12.186;2022-12-18T09:57:34;13.03;;;8.50;;
4583;SDS011;2304;47.606;12.186;2022-12-18T10:02:43;13.07;;;8.60;;
4583;SDS011;2304;47.606;12.186;2022-12-18T10:07:48;15.33;;;7.40;;
4583;SDS011;2304;47.606;12.186;2022-12-18T10:12:58;11.23;;;6.97;;
4583;SDS011;2304;47.606;12.186;2022-12-18T10:18:11;15.63;;;9.80;;
4583;SDS011;2304;47.606;12.186;2022-12-18T10:23:21;10.10;;;6.73;;
4583;SDS011;2304;47.606;12.186;2022-12-18T10:28:29;12.10;;;6.87;;
4583;SDS011;2304;47.606;12.186;2022-12-18T10:33:33;11.63;;;6.80;;
4583;SDS011;2304;47.606;12.186;2022-12-18T10:38:35;12.60;;;8.27;;
4583;SDS011;2304;47.606;12.186;2022-12-18T10:43:38;10.80;;;6.77;;
4583;SDS011;2304;47.606;12.186;2022-12-18T10:48:47;17.03;;;8.90;;
4583;SDS011;2304;47.606;12.186;2022-12-18T10:53:54;17.23;;;9.67;;
4583;SDS011;2304;47.606;12.186;2022-12-18T10:58:59;16.03;;;8.80;;
4583;SDS011;2304;47.606;12.186;2022-12-18T11:04:07;11.83;;;7.60;;
4583;SDS011;2304;47.606;12.186;2022-12-18T11:09:18;11.27;;;6.60;;
4583;SDS011;2304;47.606;12.186;2022-12-18T11:14:22;12.30;;;7.53;;
4583;SDS011;2304;47.606;12.186;2022-12-18T11:19:30;9.33;;;6.17;;
4583;SDS011;2304;47.606;12.186;2022-12-18T11:24:34;8.27;;;5.83;;
4583;SDS011;2304;47.606;12.186;2022-12-18T11:29:38;9.33;;;6.00;;
4583;SDS011;2304;47.606;12.186;2022-12-18T11:34:42;9.53;;;5.63;;
4583;SDS011;2304;47.606;12.186;2022-12-18T11:39:49;9.63;;;5.47;;
4583;SDS011;2304;47.606;12.186;2022-12-18T11:44:57;8.13;;;5.53;;
4583;SDS011;2304;47.606;12.186;2022-12-18T11:50:08;7.07;;;4.70;;
4583;SDS011;2304;47.606;12.186;2022-12-18T11:55:14;9.40;;;5.80;;
4583;SDS011;2304;47.606;12.186;2022-12-18T12:00:25;8.17;;;4.63;;
4583;SDS011;2304;47.606;12.186;2022-12-18T12:05:31;9.43;;;5.10;;
4583;SDS011;2304;47.606;12.186;2022-12-18T12:10:45;8.60;;;5.70;;
4583;SDS011;2304;47.606;12.186;2022-12-18T12:15:58;11.37;;;6.67;;
4583;SDS011;2304;47.606;12.186;2022-12-18T12:21:12;11.30;;;5.30;;
4583;SDS011;2304;47.606;12.186;2022-12-18T12:26:21;8.33;;;5.20;;
4583;SDS011;2304;47.606;12.186;2022-12-18T12:31:34;6.60;;;3.90;;
4583;SDS011;2304;47.606;12.186;2022-12-18T12:36:54;6.40;;;4.33;;
4583;SDS011;2304;47.606;12.186;2022-12-18T12:42:03;10.90;;;5.70;;
4583;SDS011;2304;47.606;12.186;2022-12-18T12:47:25;8.07;;;4.57;;
4583;SDS011;2304;47.606;12.186;2022-12-18T12:52:33;8.10;;;4.57;;
4583;SDS011;2304;47.606;12.186;2022-12-18T12:57:40;7.63;;;4.83;;
4583;SDS011;2304;47.606;12.186;2022-12-18T13:02:47;11.20;;;4.87;;
4583;SDS011;2304;47.606;12.186;2022-12-18T13:07:55;9.23;;;4.77;;
4583;SDS011;2304;47.606;12.186;2022-12-18T13:13:00;12.60;;;5.37;;
4583;SDS011;2304;47.606;12.186;2022-12-18T13:18:05;10.17;;;5.13;;
4583;SDS011;2304;47.606;12.186;2022-12-18T13:23:32;10.07;;;4.80;;
4583;SDS011;2304;47.606;12.186;2022-12-18T13:28:49;9.53;;;5.57;;
4583;SDS011;2304;47.606;12.186;2022-12-18T13:33:54;9.33;;;4.97;;
4583;SDS011;2304;47.606;12.186;2022-12-18T13:44:35;7.53;;;4.73;;
4583;SDS011;2304;47.606;12.186;2022-12-18T13:49:40;7.80;;;4.90;;
4583;SDS011;2304;47.606;12.186;2022-12-18T13:54:47;9.60;;;4.60;;
4583;SDS011;2304;47.606;12.186;2022-12-18T13:59:51;7.60;;;4.90;;
4583;SDS011;2304;47.606;12.186;2022-12-18T14:04:54;7.50;;;4.83;;
4583;SDS011;2304;47.606;12.186;2022-12-18T14:09:58;6.97;;;5.20;;
4583;SDS011;2304;47.606;12.186;2022-12-18T14:15:01;11.17;;;5.27;;
4583;SDS011;2304;47.606;12.186;2022-12-18T14:20:04;10.43;;;5.20;;
4583;SDS011;2304;47.606;12.186;2022-12-18T14:25:16;9.90;;;5.27;;
4583;SDS011;2304;47.606;12.186;2022-12-18T14:30:26;8.23;;;5.77;;
4583;SDS011;2304;47.606;12.186;2022-12-18T14:35:30;8.57;;;5.47;;
4583;SDS011;2304;47.606;12.186;2022-12-18T14:40:33;10.23;;;6.03;;
4583;SDS011;2304;47.606;12.186;2022-12-18T14:45:36;13.00;;;7.03;;
4583;SDS011;2304;47.606;12.186;2022-12-18T14:50:41;10.57;;;5.63;;
4583;SDS011;2304;47.606;12.186;2022-12-18T14:55:45;10.20;;;5.47;;
4583;SDS011;2304;47.606;12.186;2022-12-18T15:00:48;12.20;;;4.93;;
4583;SDS011;2304;47.606;12.186;2022-12-18T15:05:50;10.57;;;6.13;;
4583;SDS011;2304;47.606;12.186;2022-12-18T15:10:54;9.47;;;6.17;;
4583;SDS011;2304;47.606;12.186;2022-12-18T15:15:57;11.50;;;6.67;;
4583;SDS011;2304;47.606;12.186;2022-12-18T15:21:07;10.83;;;5.70;;
4583;SDS011;2304;47.606;12.186;2022-12-18T15:26:13;11.23;;;6.60;;
4583;SDS011;2304;47.606;12.186;2022-12-18T15:31:28;12.63;;;7.63;;
4583;SDS011;2304;47.606;12.186;2022-12-18T15:36:31;10.17;;;6.00;;
4583;SDS011;2304;47.606;12.186;2022-12-18T15:41:37;11.70;;;7.70;;
4583;SDS011;2304;47.606;12.186;2022-12-18T15:46:39;13.07;;;7.40;;
4583;SDS011;2304;47.606;12.186;2022-12-18T15:51:41;16.40;;;7.43;;
4583;SDS011;2304;47.606;12.186;2022-12-18T15:56:44;12.27;;;6.60;;
4583;SDS011;2304;47.606;12.186;2022-12-18T16:02:07;12.33;;;7.20;;
4583;SDS011;2304;47.606;12.186;2022-12-18T16:07:16;12.40;;;7.67;;
4583;SDS011;2304;47.606;12.186;2022-12-18T16:12:20;9.47;;;6.37;;
4583;SDS011;2304;47.606;12.186;2022-12-18T16:17:23;11.47;;;7.30;;
4583;SDS011;2304;47.606;12.186;2022-12-18T16:22:29;13.30;;;7.87;;
4583;SDS011;2304;47.606;12.186;2022-12-18T16:27:32;11.83;;;6.13;;
4583;SDS011;2304;47.606;12.186;2022-12-18T16:32:34;11.40;;;7.07;;
4583;SDS011;2304;47.606;12.186;2022-12-18T16:37:36;12.97;;;7.80;;
4583;SDS011;2304;47.606;12.186;2022-12-18T16:42:40;19.87;;;9.93;;
4583;SDS011;2304;47.606;12.186;2022-12-18T16:47:43;19.07;;;7.90;;
4583;SDS011;2304;47.606;12.186;2022-12-18T16:52:46;20.40;;;9.37;;
4583;SDS011;2304;47.606;12.186;2022-12-18T16:57:49;20.27;;;9.77;;
4583;SDS011;2304;47.606;12.186;2022-12-18T17:02:51;19.07;;;8.30;;
4583;SDS011;2304;47.606;12.186;2022-12-18T17:07:53;15.97;;;8.33;;
4583;SDS011;2304;47.606;12.186;2022-12-18T17:12:56;15.80;;;10.23;;
4583;SDS011;2304;47.606;12.186;2022-12-18T17:17:59;20.63;;;12.50;;
4583;SDS011;2304;47.606;12.186;2022-12-18T17:23:00;16.10;;;8.40;;
4583;SDS011;2304;47.606;12.186;2022-12-18T17:28:04;11.87;;;7.63;;
4583;SDS011;2304;47.606;12.186;2022-12-18T17:33:05;12.00;;;7.50;;
4583;SDS011;2304;47.606;12.186;2022-12-18T17:38:07;14.83;;;7.83;;
4583;SDS011;2304;47.606;12.186;2022-12-18T17:43:10;14.13;;;7.77;;
4583;SDS011;2304;47.606;12.186;2022-12-18T17:48:12;18.03;;;9.20;;
4583;SDS011;2304;47.606;12.186;2022-12-18T17:53:14;18.07;;;9.30;;
4583;SDS011;2304;47.606;12.186;2022-12-18T17:58:17;16.60;;;9.90;;
4583;SDS011;2304;47.606;12.186;2022-12-18T18:03:19;14.67;;;7.80;;
4583;SDS011;2304;47.606;12.186;2022-12-18T18:08:22;12.97;;;8.70;;
4583;SDS011;2304;47.606;12.186;2022-12-18T18:13:25;14.00;;;8.70;;
4583;SDS011;2304;47.606;12.186;2022-12-18T18:18:49;18.43;;;9.93;;
4583;SDS011;2304;47.606;12.186;2022-12-18T18:23:51;14.77;;;8.60;;
4583;SDS011;2304;47.606;12.186;2022-12-18T18:28:54;15.10;;;10.33;;
4583;SDS011;2304;47.606;12.186;2022-12-18T18:33:57;16.63;;;9.77;;
4583;SDS011;2304;47.606;12.186;2022-12-18T18:38:59;17.40;;;10.17;;
4583;SDS011;2304;47.606;12.186;2022-12-18T18:44:02;14.23;;;8.93;;
4583;SDS011;2304;47.606;12.186;2022-12-18T18:49:05;19.00;;;8.53;;
4583;SDS011;2304;47.606;12.186;2022-12-18T18:54:07;15.97;;;8.67;;
4583;SDS011;2304;47.606;12.186;2022-12-18T18:59:10;14.80;;;8.87;;
4583;SDS011;2304;47.606;12.186;2022-12-18T19:04:13;15.50;;;7.97;;
4583;SDS011;2304;47.606;12.186;2022-12-18T19:09:15;13.90;;;8.43;;
4583;SDS011;2304;47.606;12.186;2022-12-18T19:14:18;13.73;;;8.90;;
4583;SDS011;2304;47.606;12.186;2022-12-18T19:19:19;14.13;;;7.70;;
4583;SDS011;2304;47.606;12.186;2022-12-18T19:24:22;16.03;;;8.97;;
4583;SDS011;2304;47.606;12.186;2022-12-18T19:29:25;12.83;;;7.90;;
4583;SDS011;2304;47.606;12.186;2022-12-18T19:34:27;17.93;;;8.77;;
4583;SDS011;2304;47.606;12.186;2022-12-18T19:39:29;17.27;;;9.63;;
4583;SDS011;2304;47.606;12.186;2022-12-18T19:44:32;18.73;;;9.60;;
4583;SDS011;2304;47.606;12.186;2022-12-18T19:49:34;15.67;;;9.97;;
4583;SDS011;2304;47.606;12.186;2022-12-18T19:54:37;15.43;;;10.00;;
4583;SDS011;2304;47.606;12.186;2022-12-18T19:59:41;13.13;;;8.80;;
4583;SDS011;2304;47.606;12.186;2022-12-18T20:04:43;14.87;;;8.00;;
4583;SDS011;2304;47.606;12.186;2022-12-18T20:09:44;16.87;;;8.90;;
4583;SDS011;2304;47.606;12.186;2022-12-18T20:14:48;13.40;;;7.50;;
4583;SDS011;2304;47.606;12.186;2022-12-18T20:19:50;14.70;;;9.07;;
4583;SDS011;2304;47.606;12.186;2022-12-18T20:24:51;20.13;;;9.07;;
4583;SDS011;2304;47.606;12.186;2022-12-18T20:29:55;13.83;;;8.50;;
4583;SDS011;2304;47.606;12.186;2022-12-18T20:34:56;21.53;;;9.00;;
4583;SDS011;2304;47.606;12.186;2022-12-18T20:39:58;16.03;;;9.47;;
4583;SDS011;2304;47.606;12.186;2022-12-18T20:45:01;15.30;;;8.77;;
4583;SDS011;2304;47.606;12.186;2022-12-18T20:50:04;18.33;;;8.60;;
4583;SDS011;2304;47.606;12.186;2022-12-18T20:55:06;14.50;;;8.23;;
4583;SDS011;2304;47.606;12.186;2022-12-18T21:00:11;15.53;;;8.13;;
4583;SDS011;2304;47.606;12.186;2022-12-18T21:05:13;15.93;;;8.70;;
4583;SDS011;2304;47.606;12.186;2022-12-18T21:10:15;15.30;;;7.53;;
4583;SDS011;2304;47.606;12.186;2022-12-18T21:15:22;16.13;;;10.63;;
4583;SDS011;2304;47.606;12.186;2022-12-18T21:20:24;15.83;;;9.50;;
4583;SDS011;2304;47.606;12.186;2022-12-18T21:25:25;15.10;;;9.80;;
4583;SDS011;2304;47.606;12.186;2022-12-18T21:30:29;19.90;;;9.60;;
4583;SDS011;2304;47.606;12.186;2022-12-18T21:35:30;14.70;;;9.20;;
4583;SDS011;2304;47.606;12.186;2022-12-18T21:40:32;15.73;;;7.00;;
4583;SDS011;2304;47.606;12.186;2022-12-18T21:45:35;12.70;;;7.93;;
4583;SDS011;2304;47.606;12.186;2022-12-18T21:50:37;19.10;;;9.97;;
4583;SDS011;2304;47.606;12.186;2022-12-18T21:55:39;14.77;;;8.40;;
4583;SDS011;2304;47.606;12.186;2022-12-18T22:00:42;20.00;;;9.10;;
4583;SDS011;2304;47.606;12.186;2022-12-18T22:05:44;14.37;;;7.83;;
4583;SDS011;2304;47.606;12.186;2022-12-18T22:10:46;13.77;;;7.77;;
4583;SDS011;2304;47.606;12.186;2022-12-18T22:15:49;13.63;;;8.00;;
4583;SDS011;2304;47.606;12.186;2022-12-18T22:20:59;12.53;;;6.87;;
4583;SDS011;2304;47.606;12.186;2022-12-18T22:26:01;17.30;;;8.27;;
4583;SDS011;2304;47.606;12.186;2022-12-18T22:31:04;18.20;;;10.10;;
4583;SDS011;2304;47.606;12.186;2022-12-18T22:36:06;15.03;;;7.53;;
4583;SDS011;2304;47.606;12.186;2022-12-18T22:41:08;13.53;;;6.00;;
4583;SDS011;2304;47.606;12.186;2022-12-18T22:46:12;12.70;;;7.60;;
4583;SDS011;2304;47.606;12.186;2022-12-18T22:51:19;13.77;;;6.00;;
4583;SDS011;2304;47.606;12.186;2022-12-18T22:56:21;13.70;;;6.50;;
4583;SDS011;2304;47.606;12.186;2022-12-18T23:01:25;12.47;;;7.63;;
4583;SDS011;2304;47.606;12.186;2022-12-18T23:06:29;9.63;;;6.83;;
4583;SDS011;2304;47.606;12.186;2022-12-18T23:11:31;16.47;;;7.53;;
4583;SDS011;2304;47.606;12.186;2022-12-18T23:16:35;11.27;;;6.60;;
4583;SDS011;2304;47.606;12.186;2022-12-18T23:21:36;9.80;;;6.30;;
4583;SDS011;2304;47.606;12.186;2022-12-18T23:26:38;11.90;;;6.83;;
4583;SDS011;2304;47.606;12.186;2022-12-18T23:31:42;10.90;;;7.10;;
4583;SDS011;2304;47.606;12.186;2022-12-18T23:36:43;12.57;;;7.00;;
4583;SDS011;2304;47.606;12.186;2022-12-18T23:41:45;14.90;;;8.40;;
4583;SDS011;2304;47.606;12.186;2022-12-18T23:46:48;13.47;;;7.50;;
4583;SDS011;2304;47.606;12.186;2022-12-18T23:51:52;15.47;;;7.27;;
4583;SDS011;2304;47.606;12.186;2022-12-18T23:56:54;9.17;;;6.50;;
